createdAt,value
2023-10-16T00:02:24.714Z,99027.78
2023-10-16T00:04:53.502Z,99037.25
2023-10-16T00:07:23.746Z,99039.63
2023-10-16T00:09:55.275Z,98993.94
2023-10-16T00:12:24.281Z,99047.47
2023-10-16T00:14:52.348Z,99038.38
2023-10-16T00:17:22.872Z,99047.13
2023-10-16T00:19:55.296Z,99065.53
2023-10-16T00:22:26.949Z,99064.16
2023-10-16T00:24:59.911Z,99051.72
2023-10-16T00:27:28.485Z,99080.00
2023-10-16T00:29:56.833Z,99086.72
2023-10-16T00:32:24.903Z,99083.63
2023-10-16T00:34:53.348Z,99093.22
2023-10-16T00:37:22.365Z,99102.59
2023-10-16T00:39:51.957Z,99103.41
2023-10-16T00:42:19.980Z,99102.50
2023-10-16T00:44:49.716Z,99119.63
2023-10-16T00:47:17.710Z,99121.53
2023-10-16T00:49:48.497Z,99120.69
2023-10-16T00:52:17.217Z,99117.31
2023-10-16T00:54:48.051Z,99134.16
2023-10-16T00:57:17.606Z,99115.28
2023-10-16T00:59:45.610Z,99135.53
2023-10-16T01:02:16.084Z,99094.06
2023-10-16T01:04:44.710Z,99135.66
2023-10-16T01:07:16.526Z,99153.66
2023-10-16T01:09:45.389Z,99151.16
2023-10-16T01:12:13.997Z,99161.38
2023-10-16T01:14:43.381Z,99163.63
2023-10-16T01:17:12.486Z,99142.25
2023-10-16T01:19:43.503Z,99172.91
2023-10-16T01:22:13.342Z,99167.50
2023-10-16T01:24:46.553Z,99160.53
2023-10-16T01:27:28.035Z,99170.81
2023-10-16T01:29:58.432Z,99187.34
2023-10-16T01:32:27.474Z,99176.97
2023-10-16T01:34:57.037Z,99145.31
2023-10-16T01:37:30.021Z,99200.09
2023-10-16T01:40:15.817Z,99177.22
2023-10-16T01:42:44.044Z,99201.88
2023-10-16T01:45:13.845Z,99201.66
2023-10-16T01:47:43.710Z,99231.84
2023-10-16T01:50:22.002Z,99228.97
2023-10-16T01:52:50.516Z,99233.53
2023-10-16T01:55:20.191Z,99241.16
2023-10-16T01:57:49.303Z,99241.00
2023-10-16T02:00:19.555Z,99245.97
2023-10-16T02:02:47.794Z,99249.75
2023-10-16T02:05:16.181Z,99244.63
2023-10-16T02:07:44.649Z,99257.00
2023-10-16T02:10:14.501Z,99256.53
2023-10-16T02:12:43.882Z,99259.34
2023-10-16T02:15:15.802Z,99274.84
2023-10-16T02:17:44.140Z,99243.91
2023-10-16T02:20:14.364Z,99270.63
2023-10-16T02:22:42.578Z,99269.78
2023-10-16T02:25:11.835Z,99280.81
2023-10-16T02:27:43.094Z,99284.78
2023-10-16T02:30:29.710Z,99284.44
2023-10-16T02:33:12.484Z,99266.50
2023-10-16T02:35:43.396Z,99302.41
2023-10-16T02:38:14.953Z,99261.75
2023-10-16T02:40:44.959Z,99313.34
2023-10-16T02:43:19.646Z,99309.06
2023-10-16T02:45:53.112Z,99302.47
2023-10-16T02:48:22.832Z,99312.72
2023-10-16T02:50:55.401Z,99317.81
2023-10-16T02:53:26.515Z,99340.06
2023-10-16T02:55:59.912Z,99324.56
2023-10-16T02:58:30.045Z,99342.88
2023-10-16T03:01:00.640Z,99318.81
2023-10-16T03:03:30.057Z,99323.09
2023-10-16T03:06:00.830Z,99352.75
2023-10-16T03:08:31.776Z,99352.91
2023-10-16T03:11:00.913Z,99345.19
2023-10-16T03:13:28.898Z,99360.34
2023-10-16T03:16:06.829Z,99374.19
2023-10-16T03:18:37.037Z,99361.66
2023-10-16T03:21:27.887Z,99357.38
2023-10-16T03:23:59.794Z,99355.06
2023-10-16T03:26:29.447Z,99350.09
2023-10-16T03:28:58.739Z,99374.16
2023-10-16T03:31:26.825Z,99389.31
2023-10-16T03:33:56.790Z,99390.16
2023-10-16T03:36:25.132Z,99401.63
2023-10-16T03:38:53.130Z,99391.50
2023-10-16T03:41:29.074Z,99408.72
2023-10-16T03:44:00.298Z,99412.88
2023-10-16T03:46:29.051Z,99252.13
2023-10-16T03:48:59.365Z,99401.94
2023-10-16T03:51:27.677Z,99407.44
2023-10-16T03:53:57.905Z,99431.13
2023-10-16T03:56:26.845Z,99431.06
2023-10-16T03:58:56.825Z,99424.59
2023-10-16T04:01:28.549Z,99428.69
2023-10-16T04:03:58.820Z,99448.56
2023-10-16T04:06:29.013Z,99452.81
2023-10-16T04:08:59.465Z,99445.72
2023-10-16T04:11:27.456Z,99451.28
2023-10-16T04:13:55.573Z,99430.88
2023-10-16T04:16:43.967Z,99450.25
2023-10-16T04:19:37.562Z,99459.13
2023-10-16T04:22:10.135Z,99436.22
2023-10-16T04:24:46.884Z,99448.25
2023-10-16T04:27:35.373Z,99467.34
2023-10-16T04:30:21.279Z,99489.09
2023-10-16T04:33:09.492Z,99486.19
2023-10-16T04:35:56.412Z,99494.16
2023-10-16T04:38:33.019Z,99498.06
2023-10-16T04:41:19.428Z,99503.63
2023-10-16T04:44:11.576Z,99486.44
2023-10-16T04:46:53.669Z,99486.00
2023-10-16T04:49:22.252Z,99491.53
2023-10-16T04:51:54.050Z,99510.72
2023-10-16T04:54:46.602Z,99524.22
2023-10-16T04:57:31.255Z,99539.56
2023-10-16T05:00:13.953Z,99509.91
2023-10-16T05:02:53.680Z,99551.50
2023-10-16T05:05:57.684Z,99576.09
2023-10-16T05:09:00.484Z,99566.13
2023-10-16T05:11:34.917Z,99567.88
2023-10-16T05:14:23.829Z,99565.56
2023-10-16T05:17:08.366Z,99554.38
2023-10-16T05:19:47.948Z,99566.31
2023-10-16T05:22:33.666Z,99563.25
2023-10-16T05:25:22.627Z,99570.63
2023-10-16T05:28:08.256Z,99580.66
2023-10-16T05:30:53.793Z,99439.66
2023-10-16T05:33:39.279Z,99610.50
2023-10-16T05:36:25.469Z,99621.34
2023-10-16T05:39:10.700Z,99613.69
2023-10-16T05:41:57.692Z,99537.56
2023-10-16T05:44:43.252Z,99491.69
2023-10-16T05:47:28.706Z,99642.91
2023-10-16T05:50:10.562Z,99655.69
2023-10-16T05:52:57.810Z,99628.00
2023-10-16T05:55:44.656Z,99642.06
2023-10-16T05:58:31.461Z,99687.47
2023-10-16T06:01:23.899Z,99694.13
2023-10-16T06:04:09.484Z,99698.44
2023-10-16T06:07:00.204Z,99707.59
2023-10-16T06:09:46.568Z,99700.25
2023-10-16T06:12:32.010Z,99722.72
2023-10-16T06:15:01.604Z,99740.56
2023-10-16T06:17:29.731Z,99734.34
2023-10-16T06:19:57.812Z,99734.59
2023-10-16T06:22:25.839Z,99702.28
2023-10-16T06:24:54.230Z,99749.97
2023-10-16T06:27:23.183Z,99738.63
2023-10-16T06:29:55.325Z,99704.22
2023-10-16T06:32:27.148Z,99732.53
2023-10-16T06:34:59.203Z,99752.59
2023-10-16T06:37:30.184Z,99758.09
2023-10-16T06:40:00.532Z,99771.78
2023-10-16T06:42:28.834Z,99777.63
2023-10-16T06:44:57.816Z,99739.06
2023-10-16T06:47:36.765Z,99787.47
2023-10-16T06:50:28.499Z,99786.78
2023-10-16T06:52:58.366Z,99783.84
2023-10-16T06:55:26.304Z,99791.06
2023-10-16T06:57:54.606Z,99760.63
2023-10-16T07:00:26.322Z,99802.13
2023-10-16T07:02:57.212Z,99803.78
2023-10-16T07:05:26.653Z,99810.41
2023-10-16T07:07:59.024Z,99809.31
2023-10-16T07:10:28.274Z,99792.16
2023-10-16T07:13:00.520Z,99800.47
2023-10-16T07:15:31.004Z,99816.50
2023-10-16T07:18:06.162Z,99824.00
2023-10-16T07:20:35.682Z,99817.88
2023-10-16T07:23:11.747Z,99836.88
2023-10-16T07:25:49.299Z,99840.31
2023-10-16T07:28:19.416Z,99838.09
2023-10-16T07:30:47.905Z,99822.91
2023-10-16T07:33:18.059Z,99851.13
2023-10-16T07:35:46.762Z,99857.75
2023-10-16T07:38:16.537Z,99873.56
2023-10-16T07:40:44.578Z,99796.06
2023-10-16T07:43:12.649Z,99877.84
2023-10-16T07:45:46.355Z,99869.97
2023-10-16T07:48:22.136Z,99853.88
2023-10-16T07:50:52.942Z,99868.41
2023-10-16T07:53:20.943Z,99839.63
2023-10-16T07:55:52.995Z,99821.34
2023-10-16T07:58:24.756Z,99844.75
2023-10-16T08:01:16.568Z,99837.25
2023-10-16T08:03:46.779Z,99860.91
2023-10-16T08:06:24.664Z,99868.53
2023-10-16T08:09:14.273Z,99874.63
2023-10-16T08:11:44.297Z,99854.00
2023-10-16T08:14:14.487Z,99868.97
2023-10-16T08:16:43.007Z,99862.47
2023-10-16T08:19:17.225Z,99890.78
2023-10-16T08:21:46.848Z,99887.03
2023-10-16T08:24:16.171Z,99879.69
2023-10-16T08:26:44.904Z,99819.38
2023-10-16T08:29:19.360Z,99866.53
2023-10-16T08:31:53.800Z,99896.94
2023-10-16T08:34:22.066Z,99891.69
2023-10-16T08:36:52.500Z,99887.78
2023-10-16T08:39:22.828Z,99899.06
2023-10-16T08:41:54.253Z,99900.25
2023-10-16T08:44:24.361Z,99832.41
2023-10-16T08:47:17.218Z,99898.69
2023-10-16T08:49:59.204Z,99893.41
2023-10-16T08:52:35.607Z,99899.50
2023-10-16T08:55:15.542Z,99915.22
2023-10-16T08:57:44.963Z,99921.72
2023-10-16T09:00:20.693Z,99922.78
2023-10-16T09:02:53.457Z,99918.94
2023-10-16T09:05:22.460Z,99930.81
2023-10-16T09:07:52.413Z,99934.03
2023-10-16T09:10:22.824Z,99924.03
2023-10-16T09:12:56.801Z,99908.19
2023-10-16T09:15:26.159Z,99922.91
2023-10-16T09:17:55.797Z,99927.69
2023-10-16T09:20:34.477Z,99928.47
2023-10-16T09:23:06.232Z,99918.94
2023-10-16T09:25:38.398Z,99929.28
2023-10-16T09:28:08.279Z,99921.09
2023-10-16T09:30:36.471Z,99923.13
2023-10-16T09:33:07.686Z,99891.28
2023-10-16T09:35:35.797Z,99916.59
2023-10-16T09:38:18.984Z,99905.34
2023-10-16T09:41:35.396Z,99911.69
2023-10-16T09:44:09.121Z,99776.50
2023-10-16T09:46:51.854Z,99902.41
2023-10-16T09:49:22.542Z,99897.38
2023-10-16T09:52:05.202Z,99888.00
2023-10-16T09:54:37.327Z,99854.41
2023-10-16T09:57:09.743Z,99889.81
2023-10-16T09:59:40.536Z,99860.72
2023-10-16T10:02:10.554Z,99863.09
2023-10-16T10:04:40.727Z,99864.09
2023-10-16T10:07:20.797Z,99867.59
2023-10-16T10:09:54.678Z,99866.09
2023-10-16T10:12:43.772Z,99859.78
2023-10-16T10:15:22.925Z,99842.28
2023-10-16T10:17:55.426Z,99856.81
2023-10-16T10:20:27.610Z,99859.09
2023-10-16T10:23:00.544Z,99853.78
2023-10-16T10:25:37.199Z,99854.47
2023-10-16T10:28:11.870Z,99844.50
2023-10-16T10:30:45.731Z,99843.09
2023-10-16T10:33:15.140Z,99833.00
2023-10-16T10:35:44.634Z,99849.38
2023-10-16T10:38:22.876Z,99844.50
2023-10-16T10:41:17.341Z,99846.13
2023-10-16T10:43:49.309Z,99854.91
2023-10-16T10:46:26.377Z,99847.50
2023-10-16T10:48:59.619Z,99844.88
2023-10-16T10:51:35.420Z,99841.72
2023-10-16T10:54:05.030Z,99844.16
2023-10-16T10:56:49.148Z,99838.56
2023-10-16T10:59:40.826Z,99848.78
2023-10-16T11:02:22.735Z,99762.69
2023-10-16T11:04:55.039Z,99833.94
2023-10-16T11:07:28.107Z,99825.94
2023-10-16T11:09:58.329Z,99827.94
2023-10-16T11:12:28.097Z,99832.38
2023-10-16T11:14:57.855Z,99823.16
2023-10-16T11:17:34.349Z,99825.44
2023-10-16T11:20:13.306Z,99811.78
2023-10-16T11:22:44.901Z,99830.09
2023-10-16T11:25:15.376Z,99825.00
2023-10-16T11:27:46.597Z,99821.94
2023-10-16T11:30:16.346Z,99830.97
2023-10-16T11:32:46.778Z,99829.19
2023-10-16T11:35:17.306Z,99836.06
2023-10-16T11:37:51.534Z,99835.34
2023-10-16T11:40:20.447Z,99801.50
2023-10-16T11:42:50.549Z,99833.34
2023-10-16T11:45:22.486Z,99834.88
2023-10-16T11:48:12.617Z,99842.94
2023-10-16T11:50:42.072Z,99821.94
2023-10-16T11:53:10.400Z,99839.38
2023-10-16T11:55:38.977Z,99796.19
2023-10-16T11:58:10.480Z,99845.75
2023-10-16T12:00:44.221Z,99838.16
2023-10-16T12:03:15.808Z,99845.59
2023-10-16T12:05:44.639Z,99838.66
2023-10-16T12:08:13.228Z,99833.19
2023-10-16T12:10:42.378Z,99857.22
2023-10-16T12:13:12.016Z,99853.59
2023-10-16T12:15:41.085Z,99769.06
2023-10-16T12:18:11.171Z,99844.81
2023-10-16T12:20:39.856Z,99844.81
2023-10-16T12:23:08.095Z,99844.47
2023-10-16T12:25:36.936Z,99851.47
2023-10-16T12:28:09.102Z,99852.44
2023-10-16T12:30:38.903Z,99839.19
2023-10-16T12:33:07.634Z,99847.19
2023-10-16T12:35:36.865Z,99859.25
2023-10-16T12:38:06.234Z,99857.25
2023-10-16T12:40:38.505Z,99823.53
2023-10-16T12:43:08.240Z,99808.00
2023-10-16T12:45:38.682Z,99865.84
2023-10-16T12:48:09.886Z,99851.53
2023-10-16T12:50:39.021Z,99845.75
2023-10-16T12:53:08.089Z,99858.81
2023-10-16T12:55:36.038Z,99866.13
2023-10-16T12:58:05.405Z,99867.44
2023-10-16T13:00:40.011Z,99873.75
2023-10-16T13:03:15.293Z,99868.44
2023-10-16T13:05:44.182Z,99869.06
2023-10-16T13:08:13.151Z,99855.22
2023-10-16T13:10:41.346Z,99866.66
2023-10-16T13:13:10.726Z,99870.31
2023-10-16T13:15:38.875Z,99841.13
2023-10-16T13:18:12.924Z,99868.44
2023-10-16T13:20:42.334Z,99863.72
2023-10-16T13:23:10.269Z,99865.63
2023-10-16T13:25:39.080Z,99867.47
2023-10-16T13:28:09.006Z,99863.34
2023-10-16T13:30:37.127Z,99868.03
2023-10-16T13:33:10.049Z,99870.44
2023-10-16T13:35:40.700Z,99854.91
2023-10-16T13:38:11.312Z,99878.97
2023-10-16T13:40:40.089Z,99859.75
2023-10-16T13:43:11.971Z,99873.25
2023-10-16T13:45:41.059Z,99866.66
2023-10-16T13:48:11.306Z,99859.66
2023-10-16T13:50:41.600Z,99830.81
2023-10-16T13:53:12.187Z,99793.34
2023-10-16T13:55:41.174Z,99827.47
2023-10-16T13:58:09.986Z,99786.38
2023-10-16T14:00:39.455Z,99882.16
2023-10-16T14:03:10.757Z,99870.75
2023-10-16T14:05:42.230Z,99883.47
2023-10-16T14:08:16.860Z,99885.50
2023-10-16T14:10:50.997Z,99861.50
2023-10-16T14:13:23.219Z,99884.31
2023-10-16T14:15:53.503Z,99806.22
2023-10-16T14:18:26.444Z,99883.19
2023-10-16T14:20:57.638Z,99882.38
2023-10-16T14:23:30.520Z,99859.59
2023-10-16T14:26:00.261Z,99887.69
2023-10-16T14:28:33.646Z,99892.81
2023-10-16T14:31:03.346Z,99886.91
2023-10-16T14:33:33.842Z,99844.00
2023-10-16T14:36:03.343Z,99840.13
2023-10-16T14:38:32.706Z,99897.44
2023-10-16T14:41:05.690Z,99875.31
2023-10-16T14:43:36.232Z,99890.88
2023-10-16T14:46:05.423Z,99899.31
2023-10-16T14:48:34.413Z,99905.69
2023-10-16T14:51:02.849Z,99908.13
2023-10-16T14:53:32.701Z,99909.31
2023-10-16T14:56:01.337Z,99911.38
2023-10-16T14:59:11.087Z,99917.88
2023-10-16T15:01:18.272Z,99828.69
2023-10-16T15:03:48.089Z,99877.63
2023-10-16T15:06:16.770Z,99901.13
2023-10-16T15:08:48.611Z,99927.94
2023-10-16T15:11:17.006Z,99934.59
2023-10-16T15:13:45.111Z,99930.47
2023-10-16T15:16:13.481Z,99942.03
2023-10-16T15:18:41.672Z,99788.66
2023-10-16T15:21:10.179Z,99933.44
2023-10-16T15:23:39.107Z,99947.84
2023-10-16T15:26:08.695Z,99945.50
2023-10-16T15:31:09.373Z,99797.44
2023-10-16T15:33:39.670Z,99921.19
2023-10-16T15:36:09.078Z,99890.78
2023-10-16T15:38:38.955Z,99918.44
2023-10-16T15:41:10.969Z,99933.94
2023-10-16T15:43:39.269Z,99979.31
2023-10-16T15:46:17.982Z,99946.72
2023-10-16T15:48:46.384Z,99988.41
2023-10-16T15:51:14.419Z,99995.78
2023-10-16T15:53:47.168Z,99997.59
2023-10-16T15:56:17.426Z,100005.50
2023-10-16T15:58:45.969Z,99917.84
2023-10-16T16:01:14.065Z,100020.06
2023-10-16T16:03:42.396Z,100026.19
2023-10-16T16:06:17.918Z,100005.84
2023-10-16T16:08:47.110Z,100037.66
2023-10-16T16:11:18.051Z,100031.09
2023-10-16T16:13:46.125Z,100020.78
2023-10-16T16:16:14.451Z,99892.75
2023-10-16T16:18:42.697Z,99975.41
2023-10-16T16:21:14.878Z,99892.25
2023-10-16T16:23:43.891Z,100050.25
2023-10-16T16:26:11.896Z,100046.66
2023-10-16T16:28:41.324Z,100026.81
2023-10-16T16:31:11.606Z,100053.13
2023-10-16T16:33:39.897Z,100052.53
2023-10-16T16:36:12.820Z,100064.84
2023-10-16T16:38:41.262Z,100068.34
2023-10-16T16:41:12.448Z,100069.94
2023-10-16T16:43:41.952Z,99985.59
2023-10-16T16:46:10.209Z,100083.97
2023-10-16T16:48:39.212Z,99986.75
2023-10-16T16:51:08.040Z,99957.25
2023-10-16T16:53:36.910Z,100007.69
2023-10-16T16:56:05.608Z,99946.22
2023-10-16T16:58:34.195Z,100105.47
2023-10-16T17:01:03.660Z,100001.72
2023-10-16T17:03:32.187Z,100074.72
2023-10-16T17:06:00.465Z,100104.72
2023-10-16T17:08:28.603Z,100117.28
2023-10-16T17:10:56.945Z,100012.88
2023-10-16T17:13:25.853Z,100123.03
2023-10-16T17:15:57.642Z,100125.19
2023-10-16T17:18:29.838Z,100128.13
2023-10-16T17:21:01.872Z,100049.69
2023-10-16T17:23:30.193Z,100127.44
2023-10-16T17:25:58.160Z,100131.88
2023-10-16T17:28:27.489Z,100135.38
2023-10-16T17:30:55.513Z,99995.97
2023-10-16T17:33:23.861Z,100107.25
2023-10-16T17:36:01.263Z,100136.47
2023-10-16T17:38:29.659Z,100135.78
2023-10-16T17:40:58.796Z,100138.97
2023-10-16T17:43:28.203Z,100114.19
2023-10-16T17:45:58.768Z,100033.09
2023-10-16T17:48:27.302Z,100035.56
2023-10-16T17:50:56.993Z,100138.56
2023-10-16T17:53:26.558Z,100134.97
2023-10-16T17:55:56.140Z,100146.88
2023-10-16T17:58:26.125Z,100141.50
2023-10-16T18:00:56.323Z,100138.56
2023-10-16T18:03:24.915Z,100149.09
2023-10-16T18:05:54.336Z,100165.72
2023-10-16T18:08:28.759Z,100158.38
2023-10-16T18:10:56.796Z,100162.13
2023-10-16T18:13:24.993Z,100159.19
2023-10-16T18:15:54.083Z,100060.00
2023-10-16T18:18:23.249Z,100164.69
2023-10-16T18:20:52.047Z,100144.34
2023-10-16T18:23:20.767Z,100113.47
2023-10-16T18:25:51.194Z,100119.78
2023-10-16T18:28:19.771Z,100171.91
2023-10-16T18:30:49.930Z,100173.56
2023-10-16T18:33:18.897Z,100082.34
2023-10-16T18:35:47.104Z,100175.31
2023-10-16T18:38:16.053Z,100182.34
2023-10-16T18:40:44.586Z,100189.66
2023-10-16T18:43:14.006Z,100187.22
2023-10-16T18:45:44.252Z,100182.94
2023-10-16T18:48:12.576Z,100185.31
2023-10-16T18:50:40.955Z,100182.47
2023-10-16T18:53:10.713Z,100187.72
2023-10-16T18:55:41.046Z,100192.38
2023-10-16T18:58:10.648Z,100192.00
2023-10-16T19:00:40.952Z,100191.75
2023-10-16T19:03:09.788Z,100170.84
2023-10-16T19:05:37.877Z,100188.81
2023-10-16T19:08:06.563Z,100192.94
2023-10-16T19:10:36.184Z,100188.25
2023-10-16T19:13:05.182Z,100192.69
2023-10-16T19:15:34.422Z,100201.03
2023-10-16T19:18:03.849Z,100201.56
2023-10-16T19:20:32.110Z,100206.81
2023-10-16T19:23:00.304Z,100202.06
2023-10-16T19:25:28.218Z,100200.28
2023-10-16T19:27:56.157Z,100209.09
2023-10-16T19:30:25.001Z,100203.84
2023-10-16T19:32:53.436Z,100150.19
2023-10-16T19:35:23.180Z,100192.03
2023-10-16T19:37:52.489Z,100201.22
2023-10-16T19:40:23.362Z,100213.63
2023-10-16T19:42:52.550Z,100221.13
2023-10-16T19:45:21.756Z,100218.16
2023-10-16T19:47:51.954Z,100242.59
2023-10-16T19:50:20.642Z,100198.66
2023-10-16T19:52:49.993Z,100239.53
2023-10-16T19:55:20.540Z,100248.63
2023-10-16T19:57:49.222Z,100261.88
2023-10-16T20:00:26.189Z,100255.88
2023-10-16T20:02:55.492Z,100263.41
2023-10-16T20:05:25.364Z,100232.59
2023-10-16T20:07:54.864Z,100261.63
2023-10-16T20:10:22.773Z,100243.91
2023-10-16T20:12:52.798Z,100263.28
2023-10-16T20:15:21.800Z,100266.97
2023-10-16T20:17:50.853Z,100269.09
2023-10-16T20:20:24.097Z,100283.41
2023-10-16T20:22:55.216Z,100271.03
2023-10-16T20:25:23.282Z,100278.25
2023-10-16T20:27:51.503Z,100278.00
2023-10-16T20:30:19.669Z,100274.81
2023-10-16T20:32:48.064Z,100285.28
2023-10-16T20:35:18.141Z,100223.38
2023-10-16T20:37:46.781Z,100274.63
2023-10-16T20:40:17.679Z,100281.53
2023-10-16T20:42:47.288Z,100212.03
2023-10-16T20:45:15.666Z,100255.53
2023-10-16T20:47:43.900Z,100281.84
2023-10-16T20:50:16.473Z,100284.16
2023-10-16T20:52:46.317Z,100281.75
2023-10-16T20:55:17.502Z,100283.75
2023-10-16T20:57:46.236Z,100286.88
2023-10-16T21:00:18.613Z,100290.09
2023-10-16T21:02:49.288Z,100282.28
2023-10-16T21:05:24.036Z,100286.03
2023-10-16T21:07:54.273Z,100279.88
2023-10-16T21:10:23.981Z,100283.22
2023-10-16T21:12:53.324Z,100280.50
2023-10-16T21:15:21.834Z,100060.19
2023-10-16T21:17:51.736Z,100290.72
2023-10-16T21:20:20.984Z,100296.53
2023-10-16T21:22:51.362Z,100295.19
2023-10-16T21:25:20.864Z,100297.28
2023-10-16T21:27:50.380Z,100304.41
2023-10-16T21:30:22.620Z,100304.91
2023-10-16T21:32:52.430Z,100303.53
2023-10-16T21:35:23.566Z,100297.78
2023-10-16T21:37:52.039Z,100298.00
2023-10-16T21:40:22.678Z,100293.63
2023-10-16T21:42:53.585Z,100271.06
2023-10-16T21:45:24.232Z,100307.97
2023-10-16T21:47:53.978Z,100226.75
2023-10-16T21:50:22.089Z,100296.56
2023-10-16T21:52:50.075Z,100300.88
2023-10-16T21:55:18.190Z,100300.78
2023-10-16T21:57:46.218Z,100308.41
2023-10-16T22:00:30.908Z,100310.31
2023-10-16T22:02:59.600Z,100310.41
2023-10-16T22:05:27.713Z,100316.69
2023-10-16T22:07:58.654Z,100308.13
2023-10-16T22:10:26.607Z,100271.94
2023-10-16T22:12:54.560Z,100310.19
2023-10-16T22:15:23.902Z,100306.22
2023-10-16T22:17:54.427Z,100308.34
2023-10-16T22:20:24.611Z,100305.91
2023-10-16T22:22:52.628Z,100315.19
2023-10-16T22:25:22.537Z,100303.94
2023-10-16T22:27:53.372Z,100308.22
2023-10-16T22:30:23.513Z,100298.91
2023-10-16T22:32:52.071Z,100308.66
2023-10-16T22:35:20.418Z,100306.47
2023-10-16T22:37:50.923Z,100303.41
2023-10-16T22:40:21.258Z,100314.91
2023-10-16T22:42:49.856Z,100319.22
2023-10-16T22:45:18.106Z,100300.19
2023-10-16T22:47:47.747Z,100309.81
2023-10-16T22:50:16.156Z,100314.22
2023-10-16T22:52:45.911Z,100330.22
2023-10-16T22:55:14.409Z,100338.66
2023-10-16T22:57:42.778Z,100342.63
2023-10-16T23:00:14.305Z,100333.66
2023-10-16T23:02:42.761Z,100347.03
2023-10-16T23:05:15.309Z,100201.88
2023-10-16T23:07:44.795Z,100341.59
2023-10-16T23:10:15.109Z,100338.22
2023-10-16T23:12:44.929Z,100339.09
2023-10-16T23:15:21.236Z,100340.25
2023-10-16T23:17:49.619Z,100343.25
2023-10-16T23:20:25.356Z,100347.88
2023-10-16T23:22:54.727Z,100347.16
2023-10-16T23:25:23.780Z,100343.28
2023-10-16T23:27:53.459Z,100341.81
2023-10-16T23:30:26.597Z,100329.44
2023-10-16T23:32:55.152Z,100339.00
2023-10-16T23:35:26.203Z,100340.78
2023-10-16T23:37:54.457Z,100298.91
2023-10-16T23:40:39.931Z,100326.72
2023-10-16T23:43:11.780Z,100332.63
2023-10-16T23:45:41.027Z,100331.97
2023-10-16T23:48:19.205Z,100334.06
2023-10-16T23:50:52.016Z,100328.41
2023-10-16T23:53:39.979Z,100323.19
2023-10-16T23:56:18.499Z,100325.06
2023-10-16T23:58:51.495Z,100322.97
